Venez Explorer Les Airs Avec Nous!

Que ce soit pour un vol de découverte, pour apprendre l’arts du pilotage ou pour voyager, venez nous rejoindre.

Information en heures locale pour LFDL
28 January 2020

Metar
LFBI 281430Z AUTO 24017KT 9999 FEW030 SCT036 10/05 Q1011 TEMPO 2500 SHRA BKN020TCU FEW025CB BECMG 28018G30KT

Lever du soleil aéronautique : 08:01

Lever du soleil : 08:31

Coucher du soleil : 17:53

Coucher du soleil aéronautique : 18:23

Actualité

Nous sommes heureux d'accueillir un ULM Savannah au sein de notre flotte. Grace à cet appareil, vous pourrez découvrir une …
Bienvenue à tous, l' Aéroclub Loudunais vous accueille sur son nouveau site internet.

Newsletter Sign Up

Praesent libero sed cursus anted dapibus diam
Fermer le menu